Time;durP1;ratioP1;P1;durP2;ratioP2;P2;SDS_P1;SDS_P2;PMS_P1;PMS_P2;Temp;Humidity;BMP_temperature;BMP_pressure;BME280_temperature;BME280_humidity;BME280_pressure;Samples;Min_cycle;Max_cycle;Signal;HPM_P1;HPM_P2
2022/01/17 00:01:18;;;;;;;78.10;69.80;;;;;;;-1.18;64.58;95446.28;5077149;28;20200;-67
2022/01/17 00:03:46;;;;;;;82.53;74.22;;;;;;;-1.17;64.71;95445.22;5076252;28;20197;-67
2022/01/17 00:06:14;;;;;;;77.80;69.72;;;;;;;-1.19;64.74;95448.19;5076203;28;20204;-67
2022/01/17 00:08:42;;;;;;;78.63;70.68;;;;;;;-1.15;64.41;95446.56;5076853;28;20173;-67
2022/01/17 00:11:09;;;;;;;78.82;70.88;;;;;;;-1.13;64.49;95452.50;5075847;28;20209;-67
2022/01/17 00:13:35;;;;;;;78.57;70.57;;;;;;;-1.14;64.47;95442.78;5076042;28;20220;-67
2022/01/17 00:16:09;;;;;;;79.25;71.40;;;;;;;-1.11;64.50;95460.38;5075990;28;20208;-67
2022/01/17 00:21:21;;;;;;;80.80;72.63;;;;;;;-1.14;63.87;95452.78;5076333;28;20610;-67
2022/01/17 00:23:49;;;;;;;78.57;70.38;;;;;;;-1.17;64.54;95446.00;5076118;28;20303;-67
2022/01/17 00:26:16;;;;;;;81.15;72.88;;;;;;;-1.17;64.63;95453.31;5076256;28;20598;-67
2022/01/17 00:28:42;;;;;;;77.65;70.05;;;;;;;-1.12;64.14;95456.88;5076434;28;20185;-67
2022/01/17 00:31:09;;;;;;;81.38;73.03;;;;;;;-1.13;64.02;95463.34;5074792;28;20243;-67
2022/01/17 00:33:36;;;;;;;78.57;70.85;;;;;;;-1.17;64.27;95461.44;5076309;28;20209;-67
2022/01/17 00:36:04;;;;;;;80.47;72.55;;;;;;;-1.20;64.25;95462.78;5076460;28;20181;-67
2022/01/17 00:38:32;;;;;;;79.72;72.05;;;;;;;-1.24;64.04;95464.41;5075492;28;20204;-67
2022/01/17 00:40:59;;;;;;;79.75;71.75;;;;;;;-1.25;64.00;95458.19;5076321;28;20220;-67
2022/01/17 00:43:26;;;;;;;80.20;72.20;;;;;;;-1.24;64.52;95469.81;5075095;28;20199;-67
2022/01/17 00:45:53;;;;;;;74.32;67.03;;;;;;;-1.22;64.19;95454.94;5076191;28;20262;-67
2022/01/17 00:48:20;;;;;;;80.30;71.75;;;;;;;-1.24;64.32;95464.41;5075912;28;20192;-67
2022/01/17 00:50:47;;;;;;;78.28;70.60;;;;;;;-1.28;64.11;95455.22;5076137;28;20564;-67
2022/01/17 00:53:14;;;;;;;78.00;70.18;;;;;;;-1.34;63.81;95457.13;5076065;28;20209;-67
2022/01/17 00:55:42;;;;;;;73.53;65.93;;;;;;;-1.38;63.93;95445.19;5076021;28;20211;-67
2022/01/17 00:58:09;;;;;;;76.72;69.18;;;;;;;-1.39;64.46;95442.75;5074737;28;20213;-67
2022/01/17 01:00:36;;;;;;;72.63;65.40;;;;;;;-1.43;64.34;95438.97;5075847;28;20185;-67
2022/01/17 01:03:03;;;;;;;74.20;66.88;;;;;;;-1.42;64.94;95443.28;5075823;28;20185;-67
2022/01/17 01:05:30;;;;;;;80.50;72.47;;;;;;;-1.44;64.42;95440.03;5074759;28;20262;-67
2022/01/17 01:07:57;;;;;;;76.10;68.38;;;;;;;-1.44;64.66;95440.03;5075748;28;20189;-67
2022/01/17 01:10:24;;;;;;;83.32;75.18;;;;;;;-1.51;64.67;95435.69;5075775;28;20211;-67
2022/01/17 01:12:52;;;;;;;84.40;76.00;;;;;;;-1.52;64.30;95425.97;5075525;28;20220;-67
2022/01/17 01:15:22;;;;;;;83.55;75.18;;;;;;;-1.46;64.41;95424.06;5074386;28;20243;-67
2022/01/17 01:17:52;;;;;;;77.18;69.35;;;;;;;-1.43;64.79;95431.66;5074532;28;20212;-66
2022/01/17 01:20:34;;;;;;;68.43;61.65;;;;;;;-1.38;64.61;95428.13;5074663;28;20201;-66
2022/01/17 01:28:31;;;;;;;84.25;75.82;;;;;;;-1.55;64.06;95425.69;5074360;28;20197;-67
2022/01/17 01:30:59;;;;;;;80.22;72.40;;;;;;;-1.60;64.69;95423.75;5074594;28;20237;-67
2022/01/17 01:33:30;;;;;;;80.10;72.00;;;;;;;-1.58;64.85;95416.19;5074478;28;20205;-67
2022/01/17 01:36:02;;;;;;;78.45;70.68;;;;;;;-1.53;65.03;95423.50;5074610;28;20246;-67
2022/01/17 01:38:29;;;;;;;70.75;63.80;;;;;;;-1.47;65.27;95433.28;5075431;28;20200;-67
2022/01/17 01:40:55;;;;;;;78.20;70.20;;;;;;;-1.40;65.07;95424.91;5074293;28;20283;-67
2022/01/17 01:43:22;;;;;;;74.82;67.03;;;;;;;-1.36;64.91;95421.38;5074747;28;20197;-67
2022/01/17 01:45:56;;;;;;;71.95;64.78;;;;;;;-1.38;64.81;95423.56;5074369;28;20201;-67
2022/01/17 01:48:23;;;;;;;74.13;66.50;;;;;;;-1.40;64.91;95422.19;5074370;28;20262;-67
2022/01/17 01:50:50;;;;;;;78.25;70.35;;;;;;;-1.45;64.78;95417.59;5074878;28;20199;-67
2022/01/17 01:53:17;;;;;;;104.82;93.55;;;;;;;-1.61;64.17;95414.03;5074820;28;20212;-67
2022/01/17 01:55:45;;;;;;;98.40;88.47;;;;;;;-1.67;64.50;95419.69;5075331;28;20182;-67
2022/01/17 01:58:12;;;;;;;105.45;93.95;;;;;;;-1.69;64.96;95414.56;5075286;28;20177;-67
2022/01/17 02:00:39;;;;;;;103.68;92.95;;;;;;;-1.71;65.47;95416.72;5074120;28;20196;-67
2022/01/17 02:03:07;;;;;;;90.65;81.13;;;;;;;-1.70;65.54;95410.25;5075069;28;20192;-67
2022/01/17 02:05:34;;;;;;;105.97;94.88;;;;;;;-1.70;65.45;95412.94;5075109;28;20238;-68
2022/01/17 02:08:01;;;;;;;97.40;87.13;;;;;;;-1.70;65.21;95399.41;5074146;28;20204;-68
2022/01/17 02:10:28;;;;;;;87.50;78.30;;;;;;;-1.64;65.40;95400.22;5075176;28;20199;-68
2022/01/17 02:12:54;;;;;;;93.68;84.07;;;;;;;-1.70;64.91;95394.00;5074891;28;20286;-68
2022/01/17 02:15:21;;;;;;;84.55;75.95;;;;;;;-1.67;65.00;95395.34;5074041;28;20197;-68
2022/01/17 02:17:54;;;;;;;85.15;76.57;;;;;;;-1.63;65.36;95393.75;5074407;28;20197;-67
2022/01/17 02:20:24;;;;;;;89.47;80.65;;;;;;;-1.78;64.76;95389.09;5074607;28;20610;-67
2022/01/17 02:22:51;;;;;;;88.22;79.30;;;;;;;-1.89;64.95;95399.09;5073891;28;20254;-68
2022/01/17 02:25:19;;;;;;;90.75;81.15;;;;;;;-1.88;65.23;95383.69;5074435;28;20196;-67
2022/01/17 02:27:48;;;;;;;83.10;74.95;;;;;;;-1.83;65.35;95389.91;5074105;28;20200;-67
2022/01/17 02:30:17;;;;;;;82.55;74.47;;;;;;;-1.75;65.38;95388.56;5074157;28;20236;-67
2022/01/17 02:32:44;;;;;;;83.55;74.97;;;;;;;-1.73;65.33;95389.13;5074647;28;20193;-67
2022/01/17 02:35:12;;;;;;;69.68;62.65;;;;;;;-1.66;64.76;95391.59;5074789;28;20181;-67
2022/01/17 02:37:40;;;;;;;66.75;60.17;;;;;;;-1.60;64.72;95382.38;5074969;28;20190;-67
2022/01/17 02:40:08;;;;;;;66.80;60.22;;;;;;;-1.51;64.95;95388.91;5074011;28;20197;-67
2022/01/17 02:42:36;;;;;;;68.65;61.58;;;;;;;-1.50;64.90;95385.91;5073751;28;20209;-67
2022/01/17 02:45:11;;;;;;;63.95;57.70;;;;;;;-1.49;64.58;95387.56;5073682;28;20208;-67
2022/01/17 02:47:38;;;;;;;65.22;58.72;;;;;;;-1.45;64.76;95393.25;5074872;28;20220;-67
2022/01/17 02:50:06;;;;;;;74.47;67.00;;;;;;;-1.56;64.42;95387.00;5074574;28;20196;-67
2022/01/17 02:52:33;;;;;;;74.05;66.65;;;;;;;-1.66;64.42;95392.41;5074597;28;20254;-68
2022/01/17 02:55:01;;;;;;;71.85;64.75;;;;;;;-1.67;64.71;95389.94;5073572;28;20209;-67
2022/01/17 02:57:28;;;;;;;73.72;66.35;;;;;;;-1.71;64.94;95389.66;5073831;28;20605;-67
2022/01/17 02:59:55;;;;;;;73.05;65.72;;;;;;;-1.68;65.22;95391.84;5074231;28;20244;-67
2022/01/17 03:02:21;;;;;;;73.15;65.70;;;;;;;-1.68;64.42;95389.13;5074585;28;20199;-67
2022/01/17 03:04:48;;;;;;;76.20;68.57;;;;;;;-1.71;64.79;95378.84;5074073;28;20614;-68
2022/01/17 03:07:15;;;;;;;75.22;67.65;;;;;;;-1.71;64.73;95378.84;5074515;28;20196;-68
2022/01/17 03:09:50;;;;;;;76.25;68.65;;;;;;;-1.73;64.73;95383.72;5073587;28;20189;-67
2022/01/17 03:12:18;;;;;;;71.72;64.40;;;;;;;-1.72;64.85;95379.94;5076177;28;20293;-67
2022/01/17 03:14:45;;;;;;;72.82;65.35;;;;;;;-1.73;64.94;95370.19;5077560;28;20213;-67
2022/01/17 03:17:12;;;;;;;67.90;61.05;;;;;;;-1.68;65.25;95369.38;5077972;28;20196;-67
2022/01/17 03:19:39;;;;;;;71.47;64.45;;;;;;;-1.73;64.93;95376.41;5077423;28;20193;-67
2022/01/17 03:22:05;;;;;;;71.22;64.00;;;;;;;-1.75;64.38;95365.03;5077139;28;20196;-67
2022/01/17 03:24:32;;;;;;;75.10;67.47;;;;;;;-1.89;64.70;95363.13;5076877;28;20192;-68
2022/01/17 03:26:59;;;;;;;72.65;65.53;;;;;;;-2.00;65.08;95375.81;5076879;28;20197;-68
2022/01/17 03:29:27;;;;;;;70.60;63.45;;;;;;;-2.01;65.41;95371.47;5076326;28;20201;-68
2022/01/17 03:31:54;;;;;;;71.60;64.45;;;;;;;-1.94;65.40;95374.75;5076975;28;20201;-68
2022/01/17 03:34:21;;;;;;;80.38;72.20;;;;;;;-1.92;65.57;95377.16;5077253;28;20223;-67
2022/01/17 03:36:48;;;;;;;83.70;75.22;;;;;;;-1.94;65.76;95385.56;5077545;28;20196;-67
2022/01/17 03:39:15;;;;;;;81.03;72.82;;;;;;;-1.90;65.43;95392.06;5077221;28;20181;-67
2022/01/17 03:41:42;;;;;;;75.50;68.13;;;;;;;-1.82;65.53;95393.44;5077518;28;20196;-67
2022/01/17 03:44:09;;;;;;;70.10;63.13;;;;;;;-1.78;65.50;95398.06;5076863;28;20193;-67
2022/01/17 03:46:37;;;;;;;68.03;61.17;;;;;;;-1.70;65.26;95392.13;5077334;28;20186;-67
2022/01/17 03:49:04;;;;;;;64.55;57.90;;;;;;;-1.68;64.89;95394.53;5076161;28;20292;-67
2022/01/17 03:51:31;;;;;;;63.58;57.08;;;;;;;-1.72;65.11;95398.88;5077350;28;20186;-67
2022/01/17 03:53:57;;;;;;;60.00;54.00;;;;;;;-1.61;65.20;95397.00;5076938;28;20209;-67
2022/01/17 03:56:24;;;;;;;64.13;57.63;;;;;;;-1.55;65.23;95401.34;5077359;28;20197;-67
2022/01/17 03:58:51;;;;;;;60.35;54.20;;;;;;;-1.54;64.89;95402.94;5077176;28;20196;-66
2022/01/17 04:01:19;;;;;;;79.90;71.60;;;;;;;-1.69;64.83;95398.34;5077059;28;20200;-67
2022/01/17 04:03:47;;;;;;;80.32;72.20;;;;;;;-1.78;64.75;95398.06;5077062;28;20521;-67
2022/01/17 04:06:15;;;;;;;85.75;76.78;;;;;;;-1.80;64.83;95407.50;5076342;28;20193;-67
2022/01/17 04:08:42;;;;;;;82.07;73.78;;;;;;;-1.96;64.91;95403.97;5076570;28;20185;-67
2022/01/17 04:11:09;;;;;;;70.55;63.40;;;;;;;-2.05;64.85;95410.94;5075864;28;20204;-66
2022/01/17 04:13:36;;;;;;;71.75;64.30;;;;;;;-2.05;65.23;95405.53;5076820;28;20216;-66
2022/01/17 04:16:03;;;;;;;71.13;63.92;;;;;;;-2.06;65.10;95417.44;5076600;28;20196;-67
2022/01/17 04:18:30;;;;;;;70.28;62.88;;;;;;;-2.00;65.28;95405.53;5075917;28;20189;-67
2022/01/17 04:21:02;;;;;;;62.13;55.67;;;;;;;-1.98;65.21;95404.19;5076621;28;20211;-66
2022/01/17 04:23:28;;;;;;;57.13;51.42;;;;;;;-1.85;65.51;95408.31;5075287;28;20209;-67
2022/01/17 04:25:56;;;;;;;56.53;50.63;;;;;;;-1.76;64.95;95404.00;5076656;28;20185;-67
2022/01/17 04:28:23;;;;;;;57.35;51.53;;;;;;;-1.71;64.52;95400.47;5075654;28;20201;-67
2022/01/17 04:30:50;;;;;;;55.40;49.90;;;;;;;-1.66;64.73;95400.50;5075056;28;20243;-67
2022/01/17 04:33:16;;;;;;;62.72;56.47;;;;;;;-1.66;64.58;95395.09;5075567;28;20499;-67
2022/01/17 04:35:44;;;;;;;63.10;56.80;;;;;;;-1.66;64.63;95392.41;5075673;28;20220;-67
2022/01/17 04:38:15;;;;;;;61.60;55.38;;;;;;;-1.72;64.34;95390.75;5076437;28;20197;-67
2022/01/17 04:40:46;;;;;;;62.78;56.55;;;;;;;-1.79;64.27;95390.19;5075383;28;20185;-67
2022/01/17 04:43:19;;;;;;;60.50;54.30;;;;;;;-1.90;64.63;95383.94;5075349;28;20593;-66
2022/01/17 04:45:46;;;;;;;59.17;53.40;;;;;;;-1.91;64.81;95385.03;5075742;28;20193;-66
2022/01/17 04:48:13;;;;;;;57.67;52.10;;;;;;;-1.98;64.32;95392.59;5075584;28;20205;-66
2022/01/17 04:50:42;;;;;;;58.13;52.42;;;;;;;-2.02;64.68;95386.91;5076150;28;20302;-66
2022/01/17 04:53:12;;;;;;;57.38;51.65;;;;;;;-1.93;65.03;95381.78;5075203;28;20236;-66
2022/01/17 04:55:40;;;;;;;59.15;53.25;;;;;;;-1.89;64.82;95379.34;5075009;28;20216;-67
2022/01/17 04:58:07;;;;;;;59.85;53.92;;;;;;;-1.90;64.80;95381.25;5075199;28;20200;-67
2022/01/17 05:00:34;;;;;;;60.40;54.40;;;;;;;-1.85;64.73;95386.69;5075098;28;20205;-67
2022/01/17 05:03:02;;;;;;;63.60;57.15;;;;;;;-1.85;65.45;95392.09;5075765;28;20191;-65
2022/01/17 05:05:29;;;;;;;62.72;56.10;;;;;;;-1.82;65.41;95388.81;5075555;28;20182;-65
2022/01/17 05:07:56;;;;;;;63.70;57.20;;;;;;;-1.77;65.10;95383.44;5075905;28;20196;-66
2022/01/17 05:10:23;;;;;;;61.55;55.33;;;;;;;-1.74;65.07;95391.03;5074954;28;20208;-66
2022/01/17 05:12:52;;;;;;;68.50;61.47;;;;;;;-1.61;64.95;95381.56;5075805;28;20196;-66
2022/01/17 05:15:27;;;;;;;67.95;61.00;;;;;;;-1.64;65.36;95403.75;5074851;28;20219;-66
2022/01/17 05:18:13;;;;;;;67.63;57.15;;;;;;;-1.56;65.00;95394.28;5075743;28;20184;-68
2022/01/17 05:20:41;;;;;;;72.43;59.13;;;;;;;-1.57;64.72;95388.06;5075477;28;20258;-67
2022/01/17 05:23:09;;;;;;;74.40;64.28;;;;;;;-1.49;65.00;95392.13;5075061;28;20213;-68
2022/01/17 05:25:36;;;;;;;70.80;62.90;;;;;;;-1.45;64.62;95398.66;5074586;28;20193;-67
2022/01/17 05:28:05;;;;;;;58.70;51.70;;;;;;;-1.37;64.37;95394.59;5074679;28;20197;-67
2022/01/17 05:30:32;;;;;;;56.38;50.15;;;;;;;-1.31;64.14;95407.03;5073885;28;20241;-67
2022/01/17 05:32:59;;;;;;;58.42;50.25;;;;;;;-1.26;64.00;95385.41;5075504;28;20199;-67
2022/01/17 05:35:26;;;;;;;57.08;47.67;;;;;;;-1.25;63.59;95379.69;5073571;28;20219;-67
2022/01/17 05:37:53;;;;;;;55.60;46.33;;;;;;;-1.22;63.57;95390.00;5074621;28;20200;-67
2022/01/17 05:40:20;;;;;;;59.78;53.92;;;;;;;-1.20;63.30;95384.28;5075296;28;20195;-67
2022/01/17 05:42:47;;;;;;;75.45;68.03;;;;;;;-1.22;63.92;95389.19;5075257;28;20185;-67
2022/01/17 05:45:16;;;;;;;70.85;63.92;;;;;;;-1.32;63.75;95398.09;5075315;28;20181;-67
2022/01/17 05:47:43;;;;;;;66.00;59.45;;;;;;;-1.46;64.14;95408.63;5075223;28;20185;-67
2022/01/17 05:50:10;;;;;;;69.78;62.78;;;;;;;-1.55;63.88;95414.88;5074241;28;20632;-67
2022/01/17 05:52:37;;;;;;;69.28;62.38;;;;;;;-1.63;64.04;95410.78;5075093;28;20201;-67
2022/01/17 05:55:05;;;;;;;69.28;62.58;;;;;;;-1.65;64.49;95417.53;5075046;28;20215;-66
2022/01/17 05:57:32;;;;;;;62.03;55.90;;;;;;;-1.57;64.57;95406.19;5073913;28;20211;-67
2022/01/17 06:00:00;;;;;;;69.00;62.42;;;;;;;-1.48;64.04;95405.41;5075155;28;20204;-66
2022/01/17 06:02:28;;;;;;;69.80;62.65;;;;;;;-1.56;64.38;95414.06;5074761;28;20250;-67
2022/01/17 06:04:55;;;;;;;74.00;66.65;;;;;;;-1.63;64.15;95407.28;5075000;28;20188;-67
2022/01/17 06:07:22;;;;;;;73.20;65.97;;;;;;;-1.74;64.12;95415.38;5075002;28;20204;-66
2022/01/17 06:09:48;;;;;;;81.90;73.78;;;;;;;-1.82;64.21;95409.66;5075089;28;20196;-66
2022/01/17 06:12:16;;;;;;;72.22;65.00;;;;;;;-1.79;63.93;95412.63;5075191;28;20185;-66
2022/01/17 06:14:42;;;;;;;69.78;62.67;;;;;;;-1.71;64.22;95414.00;5074043;28;20239;-66
2022/01/17 06:17:09;;;;;;;69.72;62.72;;;;;;;-1.64;64.73;95411.84;5075104;28;20195;-67
2022/01/17 06:19:37;;;;;;;80.32;72.55;;;;;;;-1.67;64.84;95409.72;5073989;28;20205;-67
2022/01/17 06:22:05;;;;;;;89.82;81.28;;;;;;;-1.67;64.49;95409.72;5074916;28;20203;-66
2022/01/17 06:24:32;;;;;;;99.97;90.43;;;;;;;-1.70;64.47;95413.75;5074151;28;20519;-66
2022/01/17 06:26:59;;;;;;;98.43;89.28;;;;;;;-1.66;64.80;95413.22;5074017;28;20193;-66
2022/01/17 06:29:27;;;;;;;94.72;85.60;;;;;;;-1.65;64.41;95410.25;5073942;28;20208;-66
2022/01/17 06:31:54;;;;;;;91.68;82.97;;;;;;;-1.63;64.66;95415.41;5074899;28;20178;-66
2022/01/17 06:34:21;;;;;;;91.28;82.28;;;;;;;-1.58;64.72;95415.41;5074386;28;20209;-66
2022/01/17 06:36:49;;;;;;;75.57;68.35;;;;;;;-1.50;64.99;95414.84;5075142;28;20197;-66
2022/01/17 06:39:16;;;;;;;62.05;55.95;;;;;;;-1.39;64.54;95423.81;5075004;28;20199;-66
2022/01/17 06:41:42;;;;;;;57.45;51.60;;;;;;;-1.31;63.92;95420.56;5073836;28;20208;-66
2022/01/17 06:44:09;;;;;;;55.67;50.15;;;;;;;-1.27;63.74;95417.06;5074179;28;20197;-66
2022/01/17 06:46:36;;;;;;;53.00;47.70;;;;;;;-1.21;63.80;95410.56;5075556;28;20193;-66
2022/01/17 06:49:03;;;;;;;39.83;35.72;;;;;;;-1.10;62.96;95424.09;5078562;28;20196;-66
2022/01/17 06:51:30;;;;;;;31.55;28.50;;;;;;;-0.94;61.64;95424.91;5078084;28;20589;-66
2022/01/17 06:53:58;;;;;;;30.10;27.08;;;;;;;-0.78;60.52;95419.22;5077481;28;20205;-66
2022/01/17 06:56:25;;;;;;;28.20;25.40;;;;;;;-0.62;60.73;95425.41;5077960;28;20201;-67
2022/01/17 06:58:51;;;;;;;23.40;21.25;;;;;;;-0.48;60.08;95417.53;5077311;28;20189;-67
2022/01/17 07:01:20;;;;;;;21.90;19.60;;;;;;;-0.33;59.21;95413.97;5077977;28;20185;-66
2022/01/17 07:03:47;;;;;;;20.20;17.95;;;;;;;-0.17;58.64;95412.84;5077248;28;20193;-66
2022/01/17 07:06:14;;;;;;;20.80;18.60;;;;;;;0.02;58.11;95418.47;5078098;28;20213;-66
2022/01/17 07:08:41;;;;;;;24.20;21.45;;;;;;;0.18;57.32;95419.19;5077748;28;20191;-66
2022/01/17 07:11:09;;;;;;;21.42;17.73;;;;;;;0.30;57.35;95416.16;5078269;28;20191;-66
2022/01/17 07:13:36;;;;;;;17.48;13.80;;;;;;;0.43;57.25;95418.25;5078162;28;20189;-66
2022/01/17 07:16:03;;;;;;;16.95;12.68;;;;;;;0.57;56.71;95427.38;5077604;28;20223;-66
2022/01/17 07:18:30;;;;;;;11.02;9.93;;;;;;;0.69;55.77;95429.75;5077102;28;20194;-67
2022/01/17 07:20:56;;;;;;;11.40;9.95;;;;;;;0.85;55.37;95435.91;5077874;28;20204;-65
2022/01/17 07:23:23;;;;;;;10.80;9.70;;;;;;;1.04;55.39;95442.28;5076892;28;20267;-66
2022/01/17 07:25:50;;;;;;;11.32;10.13;;;;;;;1.21;54.87;95452.75;5077267;28;20814;-66
2022/01/17 07:28:18;;;;;;;10.63;9.52;;;;;;;1.36;54.06;95446.38;5077711;28;20192;-66
2022/01/17 07:30:45;;;;;;;10.65;9.55;;;;;;;1.54;53.74;95458.44;5076915;28;20240;-66
2022/01/17 07:33:12;;;;;;;10.68;9.57;;;;;;;1.68;53.52;95443.09;5076955;28;20197;-66
2022/01/17 07:35:39;;;;;;;11.43;9.65;;;;;;;1.82;53.02;95445.94;5077848;28;20275;-66
2022/01/17 07:38:06;;;;;;;11.88;10.02;;;;;;;1.93;53.30;95433.84;5076427;28;20609;-66
2022/01/17 07:40:34;;;;;;;12.38;10.55;;;;;;;2.06;52.43;95421.44;5076568;28;20196;-66
2022/01/17 07:43:00;;;;;;;9.48;8.57;;;;;;;2.28;51.70;95410.81;5077464;28;20188;-66
2022/01/17 07:45:30;;;;;;;7.47;6.68;;;;;;;2.56;50.05;95411.00;5077134;28;20594;-66
2022/01/17 07:48:12;;;;;;;7.45;5.95;;;;;;;2.84;48.76;95415.50;5076503;28;20201;-67
2022/01/17 07:50:42;;;;;;;6.65;6.05;;;;;;;3.10;47.72;95428.72;5076136;28;20200;-67
2022/01/17 07:53:10;;;;;;;5.85;5.25;;;;;;;3.31;45.66;95434.69;5077324;28;20234;-66
2022/01/17 07:55:37;;;;;;;5.68;5.18;;;;;;;3.60;47.59;95443.44;5076694;28;20209;-66
2022/01/17 07:58:04;;;;;;;5.95;5.35;;;;;;;3.95;46.48;95464.91;5076232;28;20211;-67
2022/01/17 08:00:32;;;;;;;5.93;5.32;;;;;;;3.97;45.98;95498.19;5076269;28;20208;-67
2022/01/17 08:02:59;;;;;;;5.90;5.40;;;;;;;4.01;45.57;95532.75;5076226;28;20629;-66
2022/01/17 08:05:26;;;;;;;5.53;5.03;;;;;;;4.01;46.04;95508.19;5076981;28;20200;-66
2022/01/17 08:07:53;;;;;;;6.22;5.63;;;;;;;4.08;47.43;95499.63;5075962;28;20201;-66
2022/01/17 08:10:20;;;;;;;5.65;5.20;;;;;;;4.10;47.04;95481.00;5076066;28;20205;-66
2022/01/17 08:12:47;;;;;;;6.53;6.03;;;;;;;4.17;47.15;95440.47;5076016;28;20205;-66
2022/01/17 08:15:15;;;;;;;7.65;6.32;;;;;;;4.27;47.27;95432.06;5076820;28;20205;-67
2022/01/17 08:17:43;;;;;;;7.82;6.00;;;;;;;4.35;47.56;95423.16;5076235;28;20203;-66
2022/01/17 08:20:11;;;;;;;6.43;5.78;;;;;;;4.41;48.12;95418.41;5075898;28;20203;-66
2022/01/17 08:22:38;;;;;;;7.18;6.53;;;;;;;4.50;47.88;95413.03;5074933;28;20424;-67
2022/01/17 08:25:06;;;;;;;6.28;5.65;;;;;;;4.56;47.26;95420.03;5075703;28;20189;-68
2022/01/17 08:27:32;;;;;;;6.90;6.20;;;;;;;4.69;46.38;95460.19;5075256;28;20482;-66
2022/01/17 08:30:00;;;;;;;6.70;6.10;;;;;;;4.81;46.93;95485.06;5076116;28;20244;-66
2022/01/17 08:32:29;;;;;;;5.82;5.25;;;;;;;4.93;45.05;95500.13;5075797;28;20270;-67
2022/01/17 08:34:58;;;;;;;5.80;5.30;;;;;;;5.04;44.93;95515.97;5075926;28;20193;-66
2022/01/17 08:37:25;;;;;;;6.47;5.70;;;;;;;5.17;43.94;95547.16;5075869;28;20193;-66
2022/01/17 08:39:52;;;;;;;5.88;5.18;;;;;;;5.29;43.74;95513.81;5075444;28;20204;-66
2022/01/17 08:42:19;;;;;;;6.25;5.65;;;;;;;5.45;42.95;95475.97;5076425;28;20188;-66
2022/01/17 08:44:49;;;;;;;5.47;4.97;;;;;;;5.56;43.00;95480.09;5075903;28;20517;-66
2022/01/17 08:47:16;;;;;;;5.30;4.82;;;;;;;5.68;41.88;95482.25;5076476;28;20192;-66
2022/01/17 08:49:43;;;;;;;5.10;4.63;;;;;;;5.77;41.39;95442.03;5076174;28;20193;-66
2022/01/17 08:52:15;;;;;;;5.03;4.47;;;;;;;5.87;41.34;95440.97;5076276;28;20218;-65
2022/01/17 08:54:41;;;;;;;5.75;5.25;;;;;;;5.96;42.54;95398.06;5075158;28;20262;-65
2022/01/17 08:57:08;;;;;;;6.47;5.65;;;;;;;6.03;42.44;95371.84;5075759;28;20223;-65
2022/01/17 08:59:35;;;;;;;5.30;4.80;;;;;;;6.11;42.44;95394.09;5075028;28;20205;-65
2022/01/17 09:02:02;;;;;;;5.18;4.78;;;;;;;6.10;42.37;95409.72;5076106;28;20195;-65
2022/01/17 09:04:29;;;;;;;5.18;4.68;;;;;;;6.13;43.32;95386.38;5075638;28;20181;-66
2022/01/17 09:06:56;;;;;;;5.35;4.93;;;;;;;6.24;43.55;95338.38;5074962;28;20189;-66
2022/01/17 09:09:24;;;;;;;5.43;4.70;;;;;;;6.34;43.17;95327.13;5074965;28;20200;-66
2022/01/17 09:11:51;;;;;;;5.78;4.88;;;;;;;6.49;43.30;95345.03;5076033;28;20523;-66
2022/01/17 09:14:18;;;;;;;5.75;4.95;;;;;;;6.59;42.55;95347.47;5074782;28;20211;-67
2022/01/17 09:16:45;;;;;;;6.53;5.72;;;;;;;6.71;43.72;95333.13;5074182;28;20233;-66
2022/01/17 09:19:12;;;;;;;6.57;5.97;;;;;;;6.84;42.56;95337.66;5075643;28;20188;-65
2022/01/17 09:21:39;;;;;;;6.20;5.38;;;;;;;6.87;41.02;95349.94;5074632;28;20201;-65
2022/01/17 09:24:07;;;;;;;5.43;4.93;;;;;;;6.80;41.15;95319.44;5074900;28;20201;-65
2022/01/17 09:26:35;;;;;;;6.18;5.68;;;;;;;6.83;42.05;95327.03;5074668;28;20197;-66
2022/01/17 09:29:02;;;;;;;7.65;7.00;;;;;;;6.96;41.69;95326.03;5075206;28;20193;-66
2022/01/17 09:31:29;;;;;;;5.90;5.35;;;;;;;7.13;43.42;95352.66;5074634;28;20246;-65
2022/01/17 09:33:56;;;;;;;6.10;5.10;;;;;;;7.09;40.82;95362.66;5074452;28;20201;-66
2022/01/17 09:36:25;;;;;;;5.93;5.32;;;;;;;7.14;41.65;95354.25;5074608;28;20209;-66
2022/01/17 09:38:52;;;;;;;5.60;5.20;;;;;;;7.24;41.45;95362.16;5074392;28;20621;-66
2022/01/17 09:41:19;;;;;;;6.05;5.55;;;;;;;7.38;41.68;95353.75;5074716;28;20266;-65
2022/01/17 09:43:47;;;;;;;6.80;5.93;;;;;;;7.50;40.89;95375.03;5074312;28;20212;-65
2022/01/17 09:46:15;;;;;;;6.72;6.07;;;;;;;7.61;41.32;95365.34;5074253;28;20193;-66
2022/01/17 09:48:47;;;;;;;8.38;7.53;;;;;;;7.71;43.11;95370.47;5074941;28;20539;-65
2022/01/17 09:51:19;;;;;;;8.35;7.55;;;;;;;7.83;44.32;95373.34;5074855;28;20193;-66
2022/01/17 09:53:46;;;;;;;8.43;7.25;;;;;;;7.94;43.37;95387.53;5075630;28;20207;-66
2022/01/17 09:56:14;;;;;;;9.68;8.77;;;;;;;7.88;42.96;95375.94;5074329;28;20227;-66
2022/01/17 09:58:41;;;;;;;9.52;8.73;;;;;;;7.87;45.04;95373.50;5074955;28;20181;-66
2022/01/17 10:01:10;;;;;;;9.02;8.13;;;;;;;7.94;43.92;95380.09;5075059;28;20197;-65
2022/01/17 10:03:38;;;;;;;8.13;7.32;;;;;;;8.01;43.85;95387.03;5074989;28;20174;-65
2022/01/17 10:06:05;;;;;;;10.13;7.80;;;;;;;7.76;44.45;95378.53;5074180;28;20201;-65
2022/01/17 10:08:32;;;;;;;9.00;7.38;;;;;;;7.47;44.78;95374.56;5074471;28;20292;-65
2022/01/17 10:11:01;;;;;;;7.75;7.05;;;;;;;7.65;45.64;95400.03;5073876;28;20444;-66
2022/01/17 10:13:29;;;;;;;9.70;8.05;;;;;;;7.86;45.88;95389.16;5073861;28;20196;-66
2022/01/17 10:16:05;;;;;;;8.75;6.88;;;;;;;7.51;45.90;95399.41;5075047;28;20197;-66
2022/01/17 10:18:38;;;;;;;7.00;6.22;;;;;;;7.80;45.57;95398.72;5074032;28;20647;-66
2022/01/17 10:21:10;;;;;;;7.53;5.68;;;;;;;7.67;46.05;95407.97;5075652;28;20243;-66
2022/01/17 10:29:35;;;;;;;7.22;6.15;;;;;;;6.19;48.31;95380.44;5064250;28;20204;-66
2022/01/17 10:34:54;;;;;;;6.47;5.88;;;;;;;6.38;47.94;95373.88;5077416;28;20193;-66
2022/01/17 10:37:23;;;;;;;6.72;6.10;;;;;;;6.27;48.07;95368.69;5078874;28;20215;-66
2022/01/17 10:39:55;;;;;;;5.53;5.03;;;;;;;6.20;48.31;95371.09;5078680;28;20196;-66
2022/01/17 10:42:24;;;;;;;5.80;5.25;;;;;;;5.75;49.36;95381.34;5078703;28;20189;-66
2022/01/17 10:44:51;;;;;;;6.47;5.88;;;;;;;5.88;49.67;95376.88;5078480;28;20196;-66
2022/01/17 10:47:22;;;;;;;6.22;5.68;;;;;;;5.94;49.47;95373.72;5078828;28;20189;-66
2022/01/17 10:49:55;;;;;;;6.22;5.72;;;;;;;5.98;48.97;95360.22;5077691;28;20204;-66
2022/01/17 10:52:29;;;;;;;6.30;5.80;;;;;;;5.96;48.67;95359.75;5078499;28;20177;-66
2022/01/17 10:54:57;;;;;;;6.90;6.30;;;;;;;5.88;48.72;95355.00;5078408;28;20185;-66
2022/01/17 10:57:24;;;;;;;6.88;6.38;;;;;;;5.87;48.83;95375.28;5078294;28;20216;-66
2022/01/17 10:59:52;;;;;;;7.50;6.75;;;;;;;5.87;49.32;95362.41;5077371;28;20201;-66
2022/01/17 11:02:19;;;;;;;6.93;6.32;;;;;;;5.84;49.08;95356.75;5078269;28;20201;-66
2022/01/17 11:04:49;;;;;;;6.70;6.10;;;;;;;5.80;49.01;95356.56;5078107;28;20196;-68
2022/01/17 11:07:17;;;;;;;6.88;6.38;;;;;;;5.83;49.37;95339.53;5078193;28;20182;-67
2022/01/17 11:09:48;;;;;;;7.13;6.55;;;;;;;5.71;48.78;95353.81;5077650;28;20616;-66
2022/01/17 11:12:18;;;;;;;6.38;5.82;;;;;;;5.74;47.53;95347.72;5077108;28;20204;-66
2022/01/17 11:14:47;;;;;;;6.00;5.50;;;;;;;5.77;46.71;95357.19;5077975;28;20181;-65
2022/01/17 11:17:22;;;;;;;6.22;5.72;;;;;;;5.73;47.08;95350.75;5076940;28;20209;-67
2022/01/17 11:20:06;;;;;;;5.45;5.00;;;;;;;5.77;46.45;95349.81;5076714;28;20624;-66
2022/01/17 11:22:35;;;;;;;5.10;4.70;;;;;;;5.78;46.56;95328.72;5076954;28;20203;-66
2022/01/17 11:25:03;;;;;;;5.45;5.05;;;;;;;5.76;46.21;95328.22;5076973;28;20199;-66
2022/01/17 11:27:30;;;;;;;5.32;4.90;;;;;;;5.95;47.37;95326.06;5077876;28;20193;-66
2022/01/17 11:29:57;;;;;;;4.88;4.35;;;;;;;6.44;46.44;95309.59;5076284;28;20315;-66
2022/01/17 11:32:24;;;;;;;4.93;4.50;;;;;;;6.92;44.88;95308.63;5076670;28;20204;-65
2022/01/17 11:34:52;;;;;;;4.85;4.45;;;;;;;7.37;44.16;95300.81;5076790;28;20200;-66
2022/01/17 11:37:20;;;;;;;4.65;4.35;;;;;;;7.89;43.01;95308.88;5076639;28;20224;-66
2022/01/17 11:39:52;;;;;;;4.57;4.18;;;;;;;8.41;42.13;95310.56;5076683;28;20200;-66
2022/01/17 11:42:32;;;;;;;4.28;3.97;;;;;;;8.92;41.12;95319.56;5077339;28;20203;-66
2022/01/17 11:45:00;;;;;;;4.80;4.40;;;;;;;9.50;39.74;95326.00;5077351;28;20431;-66
2022/01/17 11:47:49;;;;;;;5.30;4.80;;;;;;;9.86;39.27;95319.78;5076995;28;20223;-67